Time;durP1;ratioP1;P1;durP2;ratioP2;P2;SDS_P1;SDS_P2;PMS_P1;PMS_P2;Temp;Humidity;BMP_temperature;BMP_pressure;BME280_temperature;BME280_humidity;BME280_pressure;Samples;Min_cycle;Max_cycle;Signal;HPM_P1;HPM_P2
2021/07/02 00:02:15;;;;;;;13.27;7.55;;;;;;;18.63;62.78;101609.31;4964010;28;125053;-63
2021/07/02 00:04:42;;;;;;;14.00;7.57;;;;;;;18.64;63.04;101604.78;4967733;28;124192;-63
2021/07/02 00:07:09;;;;;;;19.58;8.10;;;;;;;18.61;63.06;101604.97;4968443;28;109340;-63
2021/07/02 00:09:36;;;;;;;15.82;7.43;;;;;;;18.61;63.03;101604.97;4971807;28;109003;-62
2021/07/02 00:12:03;;;;;;;15.80;7.93;;;;;;;18.59;63.07;101602.44;4967832;28;123434;-61
2021/07/02 00:14:30;;;;;;;15.07;7.95;;;;;;;18.59;62.95;101601.53;4966775;28;123747;-62
2021/07/02 00:16:58;;;;;;;15.00;8.18;;;;;;;18.61;63.13;101599.63;4967496;28;109201;-62
2021/07/02 00:19:26;;;;;;;14.80;8.45;;;;;;;18.60;63.09;101609.50;4969973;28;108812;-62
2021/07/02 00:21:53;;;;;;;15.07;8.20;;;;;;;18.61;62.89;101605.88;4972545;28;123931;-62
2021/07/02 00:24:20;;;;;;;18.85;7.90;;;;;;;18.60;62.98;101597.91;4969869;28;124153;-62
2021/07/02 00:26:47;;;;;;;13.52;7.50;;;;;;;18.58;62.95;101602.53;4970865;28;110267;-62
2021/07/02 00:29:14;;;;;;;14.45;7.53;;;;;;;18.56;62.82;101601.78;4966957;28;110067;-62
2021/07/02 00:31:41;;;;;;;13.30;7.93;;;;;;;18.54;62.88;101598.34;4969981;28;124094;-62
2021/07/02 00:34:08;;;;;;;15.15;7.97;;;;;;;18.52;62.88;101594.91;4964981;28;124098;-62
2021/07/02 00:36:36;;;;;;;13.77;7.82;;;;;;;18.49;62.71;101602.16;4963189;28;109466;-62
2021/07/02 00:39:03;;;;;;;16.23;7.88;;;;;;;18.49;62.79;101595.94;4968706;28;109130;-62
2021/07/02 00:41:30;;;;;;;15.45;8.30;;;;;;;18.48;62.80;101595.09;4964644;28;124433;-62
2021/07/02 00:43:57;;;;;;;14.68;7.75;;;;;;;18.46;62.84;101597.00;4965394;28;123857;-62
2021/07/02 00:46:25;;;;;;;15.65;7.75;;;;;;;18.44;62.61;101593.56;4967834;28;110984;-62
2021/07/02 00:48:53;;;;;;;15.50;7.45;;;;;;;18.43;62.88;101597.22;4968482;28;109364;-62
2021/07/02 00:51:20;;;;;;;15.85;8.23;;;;;;;18.40;62.46;101592.06;4970298;28;124319;-62
2021/07/02 00:53:49;;;;;;;15.30;7.65;;;;;;;18.38;62.47;101587.75;4973771;28;123806;-62
2021/07/02 00:56:19;;;;;;;14.93;7.55;;;;;;;18.34;62.45;101592.44;4970782;28;108660;-62
2021/07/02 00:58:48;;;;;;;14.75;7.78;;;;;;;18.31;62.41;101587.31;4970202;28;109413;-62
2021/07/02 01:01:18;;;;;;;15.48;8.30;;;;;;;18.27;62.57;101585.75;4960510;28;123323;-62
2021/07/02 01:03:49;;;;;;;16.27;8.20;;;;;;;18.23;62.55;101586.94;4969708;28;123609;-61
2021/07/02 01:06:18;;;;;;;17.95;8.35;;;;;;;18.21;62.58;101580.81;4966916;28;109424;-61
2021/07/02 01:08:46;;;;;;;14.93;7.80;;;;;;;18.17;62.61;101584.66;4969564;28;108279;-62
2021/07/02 01:11:14;;;;;;;14.98;8.30;;;;;;;18.14;62.39;101579.47;4971895;28;123899;-62
2021/07/02 01:13:42;;;;;;;14.90;7.82;;;;;;;18.09;62.49;101572.59;4969153;28;123266;-61
2021/07/02 01:16:09;;;;;;;16.42;8.68;;;;;;;18.06;62.59;101586.22;4968905;28;110488;-63
2021/07/02 01:18:39;;;;;;;19.63;8.85;;;;;;;18.01;62.76;101580.28;4962843;28;110133;-63
2021/07/02 01:21:12;;;;;;;17.77;8.35;;;;;;;17.98;62.68;101580.47;4967703;28;125048;-62
2021/07/02 01:23:42;;;;;;;14.13;8.13;;;;;;;17.93;62.51;101576.38;4968317;28;124622;-63
2021/07/02 01:26:10;;;;;;;20.95;9.55;;;;;;;17.90;62.47;101577.44;4970269;28;109404;-62
2021/07/02 01:28:37;;;;;;;19.75;8.88;;;;;;;17.85;62.56;101576.88;4969433;28;109749;-63
2021/07/02 01:31:05;;;;;;;18.77;9.20;;;;;;;17.82;62.61;101577.03;4966033;28;124276;-63
2021/07/02 01:33:33;;;;;;;15.98;8.45;;;;;;;17.79;62.81;101579.91;4967733;28;122514;-63
2021/07/02 01:36:14;;;;;;;17.23;8.55;;;;;;;17.75;62.88;101583.75;4966379;28;108394;-63
2021/07/02 01:38:42;;;;;;;17.80;8.85;;;;;;;17.73;62.72;101580.31;4963496;28;108273;-63
2021/07/02 01:41:10;;;;;;;19.05;9.40;;;;;;;17.69;62.74;101580.50;4969727;28;123306;-63
2021/07/02 01:43:38;;;;;;;17.77;9.05;;;;;;;17.67;62.56;101582.41;4965033;28;123176;-63
2021/07/02 01:46:06;;;;;;;18.00;8.90;;;;;;;17.65;62.94;101581.66;4974562;28;108319;-63
2021/07/02 01:48:35;;;;;;;19.98;9.60;;;;;;;17.64;62.69;101581.75;4969003;28;108015;-63
2021/07/02 01:51:03;;;;;;;16.83;8.60;;;;;;;17.62;62.81;101581.84;4958785;28;124335;-63
2021/07/02 01:53:30;;;;;;;19.70;9.18;;;;;;;17.59;62.97;101579.34;4972811;28;122240;-64
2021/07/02 01:55:58;;;;;;;19.63;9.30;;;;;;;17.57;62.73;101570.53;4968798;28;109397;-63
2021/07/02 01:58:26;;;;;;;20.63;10.00;;;;;;;17.56;63.09;101574.19;4961338;28;107213;-64
2021/07/02 02:01:03;;;;;;;20.73;9.35;;;;;;;17.56;63.08;101573.34;4947438;28;126527;-63
2021/07/02 02:03:30;;;;;;;20.20;9.95;;;;;;;17.55;63.07;101571.59;4967588;28;124196;-64
2021/07/02 02:05:58;;;;;;;17.58;9.38;;;;;;;17.54;63.24;101570.75;4968251;28;109396;-63
2021/07/02 02:08:25;;;;;;;21.67;9.93;;;;;;;17.55;63.10;101571.59;4964093;28;110217;-64
2021/07/02 02:10:54;;;;;;;20.35;10.20;;;;;;;17.54;63.26;101570.75;4967522;28;123566;-63
2021/07/02 02:13:26;;;;;;;19.02;9.77;;;;;;;17.54;63.16;101569.88;4970458;28;122894;-63
2021/07/02 02:16:01;;;;;;;21.38;9.63;;;;;;;17.53;63.15;101563.66;4962112;28;108821;-64
2021/07/02 02:18:29;;;;;;;18.95;9.93;;;;;;;17.53;63.12;101558.31;4970676;28;108476;-63
2021/07/02 02:20:57;;;;;;;16.77;9.98;;;;;;;17.55;63.32;101560.91;4972831;28;123048;-63
2021/07/02 02:23:24;;;;;;;18.73;9.52;;;;;;;17.54;63.18;101560.03;4963477;28;124858;-63
2021/07/02 02:25:51;;;;;;;20.70;9.82;;;;;;;17.52;63.46;101562.81;4967908;28;109336;-63
2021/07/02 02:28:21;;;;;;;20.92;10.45;;;;;;;17.51;63.37;101561.06;4965578;28;108344;-63
2021/07/02 02:30:49;;;;;;;19.98;9.73;;;;;;;17.51;63.21;101565.56;4966316;28;123146;-63
2021/07/02 02:33:16;;;;;;;20.50;9.98;;;;;;;17.50;63.29;101559.38;4961011;28;124364;-63
2021/07/02 02:35:43;;;;;;;21.13;10.02;;;;;;;17.50;63.21;101563.88;4962175;28;109363;-62
2021/07/02 02:38:11;;;;;;;17.77;10.05;;;;;;;17.49;63.20;101559.47;4967347;28;109036;-63
2021/07/02 02:40:39;;;;;;;20.40;9.65;;;;;;;17.48;63.18;101560.44;4961253;28;124854;-63
2021/07/02 02:43:06;;;;;;;20.10;9.85;;;;;;;17.47;63.09;101558.69;4965569;28;124462;-62
2021/07/02 02:45:34;;;;;;;25.05;10.25;;;;;;;17.46;63.11;101551.59;4964498;28;109944;-63
2021/07/02 02:48:01;;;;;;;22.90;10.30;;;;;;;17.45;63.12;101555.25;4964588;28;109026;-64
2021/07/02 02:50:29;;;;;;;19.40;9.20;;;;;;;17.43;63.06;101551.81;4964700;28;124347;-63
2021/07/02 02:52:56;;;;;;;19.65;9.15;;;;;;;17.41;63.19;101554.59;4963837;28;124168;-63
2021/07/02 02:55:23;;;;;;;18.65;9.52;;;;;;;17.41;63.05;101553.75;4961335;28;110523;-63
2021/07/02 02:57:52;;;;;;;19.08;8.80;;;;;;;17.39;63.16;101556.50;4963933;28;110133;-63
2021/07/02 03:00:19;;;;;;;19.60;9.63;;;;;;;17.39;62.97;101555.66;4953433;28;123364;-63
2021/07/02 03:02:48;;;;;;;18.27;9.20;;;;;;;17.38;62.94;101553.91;4964194;28;123256;-63
2021/07/02 03:05:29;;;;;;;19.00;9.95;;;;;;;17.37;63.11;101553.06;4979475;28;108539;-63
2021/07/02 03:07:57;;;;;;;18.77;9.57;;;;;;;17.36;63.12;101556.69;4970335;28;108143;-63
2021/07/02 03:10:31;;;;;;;18.92;9.82;;;;;;;17.34;63.15;101560.44;4962459;28;124400;-63
2021/07/02 03:12:59;;;;;;;20.58;10.45;;;;;;;17.34;63.05;101557.75;4969013;28;124078;-63
2021/07/02 03:15:27;;;;;;;20.88;10.27;;;;;;;17.31;63.07;101548.94;4966328;28;108115;-63
2021/07/02 03:17:55;;;;;;;20.77;10.05;;;;;;;17.29;63.05;101550.88;4968458;28;110045;-63
2021/07/02 03:20:22;;;;;;;21.77;9.88;;;;;;;17.29;63.11;101550.88;4971619;28;123505;-63
2021/07/02 03:22:49;;;;;;;19.10;10.00;;;;;;;17.29;63.03;101561.56;4966666;28;124883;-63
2021/07/02 03:25:18;;;;;;;26.38;10.60;;;;;;;17.28;63.03;101565.19;4963363;28;108291;-63
2021/07/02 03:27:47;;;;;;;23.65;9.80;;;;;;;17.26;63.18;101559.06;4964168;28;110209;-63
2021/07/02 03:30:15;;;;;;;20.95;9.98;;;;;;;17.25;63.10;101570.75;4955920;28;124044;-63
2021/07/02 03:32:42;;;;;;;21.90;10.98;;;;;;;17.25;63.25;101570.75;4968906;28;124217;-63
2021/07/02 03:35:12;;;;;;;19.13;9.52;;;;;;;17.24;63.20;101569.03;4965483;28;110062;-63
2021/07/02 03:37:40;;;;;;;22.65;10.43;;;;;;;17.25;63.17;101565.41;4972923;28;108275;-63
2021/07/02 03:40:10;;;;;;;19.08;9.90;;;;;;;17.25;63.22;101576.13;4974665;28;124394;-63
2021/07/02 03:42:42;;;;;;;24.23;10.90;;;;;;;17.25;63.44;101576.13;4970297;28;122154;-63
2021/07/02 03:45:10;;;;;;;18.65;10.05;;;;;;;17.25;63.53;101576.13;4972960;28;110239;-63
2021/07/02 03:47:38;;;;;;;23.02;10.60;;;;;;;17.26;63.38;101577.81;4975312;28;109789;-63
2021/07/02 03:50:07;;;;;;;18.92;10.23;;;;;;;17.27;63.37;101579.56;4967386;28;124218;-63
2021/07/02 03:52:35;;;;;;;20.92;10.00;;;;;;;17.27;63.41;101576.88;4970669;28;123526;-63
2021/07/02 03:55:03;;;;;;;16.00;9.70;;;;;;;17.26;63.31;101577.81;4973355;28;109008;-63
2021/07/02 03:57:30;;;;;;;19.38;10.30;;;;;;;17.28;63.27;101578.59;4973047;28;110374;-63
2021/07/02 03:59:58;;;;;;;21.20;10.45;;;;;;;17.29;63.28;101574.97;4974634;28;124414;-63
2021/07/02 04:02:25;;;;;;;19.02;9.90;;;;;;;17.31;63.46;101580.22;4972323;28;123993;-63
2021/07/02 04:04:52;;;;;;;21.27;10.60;;;;;;;17.31;63.43;101586.44;4972956;28;109459;-63
2021/07/02 04:07:20;;;;;;;23.17;10.13;;;;;;;17.34;63.25;101584.53;4967166;28;109408;-63
2021/07/02 04:09:47;;;;;;;19.60;9.65;;;;;;;17.35;63.39;101580.88;4966252;28;124812;-63
2021/07/02 04:12:14;;;;;;;21.55;10.25;;;;;;;17.36;63.52;101582.59;4971182;28;124712;-63
2021/07/02 04:14:41;;;;;;;21.08;9.98;;;;;;;17.37;63.33;101584.34;4975389;28;109560;-63
2021/07/02 04:17:08;;;;;;;21.58;10.65;;;;;;;17.38;63.49;101586.06;4970548;28;110069;-63
2021/07/02 04:19:36;;;;;;;18.15;9.68;;;;;;;17.40;63.34;101589.50;4970875;28;124186;-63
2021/07/02 04:22:05;;;;;;;18.20;9.70;;;;;;;17.41;63.35;101584.03;4967314;28;124502;-63
2021/07/02 04:24:32;;;;;;;18.83;9.68;;;;;;;17.43;63.39;101586.63;4973043;28;109590;-63
2021/07/02 04:27:13;;;;;;;18.50;9.50;;;;;;;17.46;63.29;101594.47;4968772;28;109400;-63
2021/07/02 04:29:41;;;;;;;20.83;10.25;;;;;;;17.49;63.33;101583.56;4964250;28;124230;-62
2021/07/02 04:32:09;;;;;;;20.55;10.10;;;;;;;17.52;63.34;101578.03;4969372;28;123896;-62
2021/07/02 04:34:37;;;;;;;25.73;10.43;;;;;;;17.54;63.22;101581.47;4966017;28;110245;-62
2021/07/02 04:37:04;;;;;;;20.88;10.05;;;;;;;17.56;63.28;101584.91;4967282;28;110273;-62
2021/07/02 04:39:36;;;;;;;20.73;10.13;;;;;;;17.57;63.34;101575.91;4971546;28;124344;-62
2021/07/02 04:42:05;;;;;;;21.60;9.75;;;;;;;17.58;63.19;101577.63;4966806;28;123976;-62
2021/07/02 04:44:35;;;;;;;23.30;10.75;;;;;;;17.61;63.31;101582.81;4970331;28;109209;-62
2021/07/02 04:47:03;;;;;;;19.02;9.77;;;;;;;17.64;63.20;101582.59;4973458;28;110216;-62
2021/07/02 04:49:31;;;;;;;17.75;9.65;;;;;;;17.67;63.29;101578.88;4973995;28;122924;-63
2021/07/02 04:51:58;;;;;;;22.98;10.05;;;;;;;17.69;63.27;101577.81;4973399;28;124198;-62
2021/07/02 04:54:26;;;;;;;16.92;9.85;;;;;;;17.72;63.21;101579.44;4967065;28;109410;-62
2021/07/02 04:56:53;;;;;;;18.67;9.32;;;;;;;17.74;63.28;101580.19;4970969;28;109143;-62
2021/07/02 04:59:28;;;;;;;18.05;9.93;;;;;;;17.78;63.30;101584.44;4964485;28;124320;-62
2021/07/02 05:01:56;;;;;;;19.17;10.20;;;;;;;17.81;63.14;101583.34;4995388;22;123789;-66
2021/07/02 05:04:24;;;;;;;21.80;9.77;;;;;;;17.85;63.17;101584.91;4991377;28;108854;-65
2021/07/02 05:06:51;;;;;;;24.85;11.07;;;;;;;17.86;62.93;101592.00;4986740;28;109432;-65
2021/07/02 05:09:18;;;;;;;21.80;11.00;;;;;;;17.86;63.13;101581.28;4988256;28;125381;-66
2021/07/02 05:11:45;;;;;;;24.38;11.27;;;;;;;17.88;62.82;101579.38;4988024;28;123659;-65
2021/07/02 05:14:13;;;;;;;26.35;12.52;;;;;;;17.88;62.89;101590.94;4989192;28;109502;-65
2021/07/02 05:16:40;;;;;;;22.33;11.55;;;;;;;17.91;62.91;101579.16;4991163;28;108994;-65
2021/07/02 05:19:08;;;;;;;27.67;12.88;;;;;;;17.92;62.79;101582.72;4982519;28;125032;-65
2021/07/02 05:21:36;;;;;;;25.60;12.30;;;;;;;17.92;62.83;101580.88;4981585;28;124595;-65
2021/07/02 05:24:03;;;;;;;26.30;13.02;;;;;;;17.96;62.83;101577.03;4989620;28;111753;-65
2021/07/02 05:26:30;;;;;;;25.10;12.52;;;;;;;18.00;62.97;101583.91;4988719;28;110339;-65
2021/07/02 05:28:57;;;;;;;24.52;12.65;;;;;;;18.03;62.97;101583.72;4981332;28;124101;-65
2021/07/02 05:31:24;;;;;;;28.50;13.43;;;;;;;18.11;62.99;101585.06;4986835;28;123977;-65
2021/07/02 05:33:52;;;;;;;24.70;13.07;;;;;;;18.16;63.05;101593.63;4988448;28;109262;-66
2021/07/02 05:36:19;;;;;;;25.45;12.27;;;;;;;18.19;62.93;101594.31;4989447;28;109147;-66
2021/07/02 05:38:46;;;;;;;24.65;13.18;;;;;;;18.24;62.87;101596.72;4984772;28;124031;-66
2021/07/02 05:41:15;;;;;;;24.65;12.20;;;;;;;18.28;62.62;101592.84;4984049;28;124005;-65
2021/07/02 05:43:42;;;;;;;26.45;12.85;;;;;;;18.32;62.64;101591.69;4983880;28;109171;-65
2021/07/02 05:46:09;;;;;;;21.40;11.82;;;;;;;18.37;62.42;101592.25;4984664;28;110069;-65
2021/07/02 05:48:36;;;;;;;21.63;12.25;;;;;;;18.41;62.45;101593.75;4988348;28;125026;-66
2021/07/02 05:51:03;;;;;;;22.75;12.20;;;;;;;18.47;62.53;101595.19;4982947;28;123200;-65
2021/07/02 05:53:31;;;;;;;23.85;12.00;;;;;;;18.54;62.63;101598.34;4986186;28;109194;-65
2021/07/02 05:55:58;;;;;;;22.08;12.45;;;;;;;18.59;62.58;101594.38;4986151;28;110712;-65
2021/07/02 05:58:25;;;;;;;24.85;12.27;;;;;;;18.67;62.60;101599.22;4977608;28;124268;-66
2021/07/02 06:00:53;;;;;;;22.48;11.27;;;;;;;18.73;62.03;101604.19;4986769;28;125134;-66
2021/07/02 06:03:20;;;;;;;20.85;11.82;;;;;;;18.78;62.07;101611.91;4979894;28;109512;-67
2021/07/02 06:05:47;;;;;;;20.35;11.13;;;;;;;18.83;61.96;101605.28;4981397;28;110110;-66
2021/07/02 06:08:15;;;;;;;22.65;11.38;;;;;;;18.88;61.95;101607.69;4990796;28;124606;-66
2021/07/02 06:10:42;;;;;;;20.75;11.15;;;;;;;18.95;61.82;101608.09;4979525;28;124698;-66
2021/07/02 06:13:09;;;;;;;21.17;11.00;;;;;;;18.98;61.63;101597.16;4983786;28;110885;-66
2021/07/02 06:15:37;;;;;;;21.48;11.15;;;;;;;19.04;61.96;101602.09;4985725;28;108808;-66
2021/07/02 06:18:09;;;;;;;19.63;10.60;;;;;;;19.10;61.23;101607.09;4981743;28;122218;-66
2021/07/02 06:20:37;;;;;;;20.90;11.05;;;;;;;19.15;61.47;101604.91;4989058;28;124653;-66
2021/07/02 06:23:05;;;;;;;19.75;9.82;;;;;;;19.21;61.48;101606.31;4985633;28;109345;-66
2021/07/02 06:25:32;;;;;;;18.08;9.98;;;;;;;19.28;61.20;101604.06;4964068;28;107809;-65
2021/07/02 06:27:59;;;;;;;18.38;9.65;;;;;;;19.33;61.20;101601.94;4990913;28;124846;-66
2021/07/02 06:30:26;;;;;;;17.92;9.98;;;;;;;19.39;61.46;101606.88;4987060;28;124265;-66
2021/07/02 06:32:53;;;;;;;21.50;10.43;;;;;;;19.48;61.34;101603.53;4986018;28;109625;-66
2021/07/02 06:35:20;;;;;;;19.63;10.77;;;;;;;19.61;61.23;101607.06;4986968;28;110086;-66
2021/07/02 06:37:49;;;;;;;20.08;10.30;;;;;;;19.71;61.21;101606.41;4988514;28;124125;-66
2021/07/02 06:40:19;;;;;;;18.08;9.68;;;;;;;19.83;61.23;101605.56;4981993;28;122308;-66
2021/07/02 06:42:47;;;;;;;16.90;9.35;;;;;;;19.97;60.95;101608.13;4983666;28;109564;-66
2021/07/02 06:45:16;;;;;;;16.08;8.88;;;;;;;20.08;60.78;101609.16;4983808;28;109321;-66
2021/07/02 06:48:04;;;;;;;13.82;8.65;;;;;;;20.19;60.68;101606.53;4984830;28;124706;-66
2021/07/02 06:50:34;;;;;;;15.32;8.80;;;;;;;20.34;60.61;101604.53;4982693;28;124772;-65
2021/07/02 06:53:05;;;;;;;17.05;9.18;;;;;;;20.50;60.31;101609.66;4987828;28;109217;-65
2021/07/02 06:55:35;;;;;;;16.10;8.77;;;;;;;20.65;60.14;101611.22;4984462;28;109082;-65
2021/07/02 06:58:04;;;;;;;17.80;8.50;;;;;;;20.77;59.93;101607.59;4986867;28;124187;-65
2021/07/02 07:00:31;;;;;;;16.23;8.40;;;;;;;20.89;59.53;101616.59;4981268;28;124709;-65
2021/07/02 07:02:58;;;;;;;16.80;8.70;;;;;;;21.00;59.13;101613.03;4981476;28;109057;-65
2021/07/02 07:05:26;;;;;;;19.08;9.38;;;;;;;21.09;58.85;101617.72;4989005;28;108262;-65
2021/07/02 07:07:53;;;;;;;15.82;8.90;;;;;;;21.19;58.96;101607.97;4981633;28;123979;-65
2021/07/02 07:10:20;;;;;;;16.73;8.82;;;;;;;21.32;58.72;101612.38;4988787;28;124501;-65
2021/07/02 07:12:48;;;;;;;16.38;9.00;;;;;;;21.38;58.30;101611.94;4989204;28;109101;-65
2021/07/02 07:15:16;;;;;;;17.00;9.20;;;;;;;21.41;58.09;101621.59;4989838;28;109211;-65
2021/07/02 07:17:47;;;;;;;17.40;9.57;;;;;;;21.41;57.64;101622.44;4964358;28;124803;-67
2021/07/02 07:20:14;;;;;;;17.00;9.10;;;;;;;21.43;57.83;101623.19;4991416;28;124496;-68
2021/07/02 07:22:42;;;;;;;16.33;8.88;;;;;;;21.46;57.84;101631.06;4983571;28;109350;-68
2021/07/02 07:25:11;;;;;;;15.35;9.02;;;;;;;21.52;57.97;101624.34;4991053;28;109099;-70
2021/07/02 07:27:38;;;;;;;17.27;10.25;;;;;;;21.58;57.51;101630.06;4991284;28;124780;-70
2021/07/02 07:30:07;;;;;;;19.27;10.90;;;;;;;21.64;57.16;101622.50;4988188;28;123952;-69
2021/07/02 07:32:37;;;;;;;18.50;10.15;;;;;;;21.65;56.87;101624.22;4989805;28;109569;-70
2021/07/02 07:38:21;;;;;;;17.35;10.13;;;;;;;21.66;56.80;101625.91;4972996;28;124123;-69
2021/07/02 07:40:49;;;;;;;18.80;10.20;;;;;;;21.66;56.85;101625.91;4991367;28;123920;-69
2021/07/02 07:43:18;;;;;;;19.88;9.55;;;;;;;21.67;56.65;101627.66;4986695;28;108908;-70
2021/07/02 07:45:46;;;;;;;17.15;9.05;;;;;;;21.69;56.39;101623.00;4985848;28;109490;-70
2021/07/02 07:48:13;;;;;;;19.83;9.70;;;;;;;21.69;56.45;101631.09;4982912;28;123795;-72
2021/07/02 07:50:45;;;;;;;17.15;9.48;;;;;;;21.72;56.56;101630.84;4989672;28;124651;-71
2021/07/02 07:53:12;;;;;;;19.95;10.35;;;;;;;21.78;56.44;101630.34;4982739;28;110456;-71
2021/07/02 07:55:39;;;;;;;18.20;10.25;;;;;;;21.85;56.17;101638.78;4984585;28;110417;-71
2021/07/02 07:58:07;;;;;;;15.73;9.40;;;;;;;21.87;55.89;101629.63;4981123;28;124021;-70
2021/07/02 08:00:34;;;;;;;16.55;9.48;;;;;;;21.93;55.60;101634.50;4988432;28;123208;-71
2021/07/02 08:03:03;;;;;;;14.40;8.93;;;;;;;21.99;55.66;101635.00;4987816;28;109170;-71
2021/07/02 08:05:30;;;;;;;15.98;9.05;;;;;;;22.03;55.66;101633.75;4985945;28;107918;-70
2021/07/02 08:07:57;;;;;;;15.50;8.30;;;;;;;22.11;55.29;101642.09;4990019;28;124260;-69
2021/07/02 08:10:26;;;;;;;15.27;8.40;;;;;;;22.13;55.26;101640.13;4991389;28;123784;-67
2021/07/02 08:12:53;;;;;;;14.27;8.57;;;;;;;22.16;55.28;101645.28;4983438;28;108738;-67
2021/07/02 08:15:21;;;;;;;14.02;7.93;;;;;;;22.19;55.14;101647.72;4984169;28;109523;-67
2021/07/02 08:17:48;;;;;;;11.90;7.25;;;;;;;22.25;55.17;101649.06;4986930;28;124096;-67
2021/07/02 08:20:15;;;;;;;11.75;6.72;;;;;;;22.29;54.79;101656.81;4989415;28;123921;-68
2021/07/02 08:22:43;;;;;;;12.50;6.70;;;;;;;22.26;54.55;101657.06;4987451;28;109495;-68
2021/07/02 08:25:13;;;;;;;11.95;7.38;;;;;;;22.21;54.29;101652.97;4988531;28;109203;-66
2021/07/02 08:30:31;;;;;;;12.25;7.13;;;;;;;22.13;54.63;101653.59;4989323;28;124413;-67
2021/07/02 08:32:58;;;;;;;13.20;7.55;;;;;;;22.11;54.57;101658.28;4989931;28;109583;-67
2021/07/02 08:35:25;;;;;;;15.35;7.90;;;;;;;22.11;54.34;101648.34;4993287;28;109047;-67
2021/07/02 08:37:56;;;;;;;13.90;7.90;;;;;;;22.14;54.86;101650.78;4987108;28;124144;-66
2021/07/02 08:40:23;;;;;;;12.88;7.05;;;;;;;22.20;54.94;101652.13;4986492;28;124616;-67
2021/07/02 08:42:50;;;;;;;13.40;7.50;;;;;;;22.29;54.90;101656.81;4987794;28;110454;-67
2021/07/02 08:45:18;;;;;;;13.40;6.93;;;;;;;22.37;54.71;101647.22;4988422;28;108974;-67
2021/07/02 08:47:45;;;;;;;17.35;7.07;;;;;;;22.46;54.65;101643.78;4990900;28;124395;-67
2021/07/02 08:50:13;;;;;;;11.25;6.78;;;;;;;22.56;54.70;101642.00;4987720;28;123846;-67
2021/07/02 08:52:40;;;;;;;14.23;7.53;;;;;;;22.67;54.46;101650.06;4992056;28;109708;-67
2021/07/02 08:55:11;;;;;;;11.18;7.07;;;;;;;22.76;54.13;101642.22;4987856;28;108783;-67
2021/07/02 08:57:39;;;;;;;14.02;7.68;;;;;;;22.81;54.06;101650.75;4991099;28;124340;-67
2021/07/02 09:00:10;;;;;;;14.63;7.93;;;;;;;22.80;53.54;101655.31;4992030;28;123986;-67
2021/07/02 09:02:40;;;;;;;17.40;7.78;;;;;;;22.78;53.50;101656.44;4989335;28;109145;-67
2021/07/02 09:05:36;;;;;;;16.33;7.70;;;;;;;22.68;53.60;101657.19;4986840;28;108813;-66
2021/07/02 09:08:17;;;;;;;16.60;8.55;;;;;;;22.65;53.62;101662.84;4987455;28;124109;-66
2021/07/02 09:10:46;;;;;;;15.45;8.18;;;;;;;22.64;53.75;101662.97;4992942;28;122610;-66
2021/07/02 09:13:15;;;;;;;14.35;7.97;;;;;;;22.61;53.64;101661.41;4988399;28;109343;-66
2021/07/02 09:15:46;;;;;;;20.13;9.18;;;;;;;22.56;53.71;101658.22;4965298;28;108162;-66
2021/07/02 09:18:15;;;;;;;17.48;9.60;;;;;;;22.51;54.13;101660.47;4980932;28;123977;-66
2021/07/02 09:20:45;;;;;;;17.83;9.82;;;;;;;22.49;54.16;101655.19;4984686;28;123877;-66
2021/07/02 09:23:16;;;;;;;21.42;10.02;;;;;;;22.49;54.01;101665.09;4985126;28;108938;-66
2021/07/02 09:25:53;;;;;;;19.05;9.63;;;;;;;22.49;53.99;101662.41;4984631;28;110376;-66
2021/07/02 09:28:30;;;;;;;20.40;10.15;;;;;;;22.51;54.02;101660.47;4992186;28;123517;-67
2021/07/02 09:30:58;;;;;;;19.90;9.80;;;;;;;22.55;54.33;101657.38;4990672;28;123784;-67
2021/07/02 09:33:27;;;;;;;18.25;10.50;;;;;;;22.61;54.47;101666.78;4988465;28;110664;-67
2021/07/02 09:35:59;;;;;;;20.80;10.85;;;;;;;22.69;54.45;101664.31;4973000;28;109873;-67
2021/07/02 09:38:35;;;;;;;19.17;10.23;;;;;;;22.77;54.39;101670.91;4993409;28;124448;-67
2021/07/02 09:41:05;;;;;;;19.15;10.77;;;;;;;22.83;54.11;101673.09;4991863;28;124670;-67
2021/07/02 09:43:33;;;;;;;18.23;11.07;;;;;;;22.88;54.01;101676.28;4986113;28;107924;-66
2021/07/02 09:46:03;;;;;;;18.58;10.90;;;;;;;22.91;54.17;101670.63;4987143;28;108989;-67
2021/07/02 09:48:33;;;;;;;20.33;11.27;;;;;;;22.94;54.03;101667.63;4971201;28;123410;-67
2021/07/02 09:51:02;;;;;;;19.65;11.25;;;;;;;23.01;54.19;101685.06;4977427;28;123954;-67
2021/07/02 09:53:38;;;;;;;18.08;10.45;;;;;;;23.07;54.04;101681.84;4977731;28;109153;-66
2021/07/02 09:56:17;;;;;;;19.08;10.68;;;;;;;23.11;54.03;101686.03;4976982;28;110251;-67
2021/07/02 09:58:44;;;;;;;17.20;11.13;;;;;;;23.12;53.89;101693.13;4978058;28;125637;-67
2021/07/02 10:01:23;;;;;;;19.58;10.65;;;;;;;23.08;53.86;101691.69;4971318;28;123950;-67
2021/07/02 10:03:51;;;;;;;18.10;10.93;;;;;;;23.08;53.61;101697.09;4981714;28;108736;-66
2021/07/02 10:06:20;;;;;;;20.63;11.48;;;;;;;23.05;53.58;101702.75;4981002;28;110347;-67
2021/07/02 10:08:49;;;;;;;20.05;10.75;;;;;;;23.05;53.59;101708.16;4980107;28;123148;-66
2021/07/02 10:11:18;;;;;;;18.25;10.20;;;;;;;22.99;53.55;101705.09;4976786;28;124494;-66
2021/07/02 10:13:51;;;;;;;19.95;11.02;;;;;;;22.89;53.23;101713.13;4978264;28;109534;-67
2021/07/02 10:16:19;;;;;;;19.00;10.77;;;;;;;22.82;53.98;101718.16;4984410;28;109982;-66
2021/07/02 10:18:52;;;;;;;20.13;11.57;;;;;;;22.76;53.69;101717.81;4991124;28;124387;-67
2021/07/02 10:21:23;;;;;;;19.73;11.80;;;;;;;22.65;53.85;101727.66;4977929;28;124015;-65
2021/07/02 10:23:54;;;;;;;20.08;12.00;;;;;;;22.51;54.18;101730.66;4979652;28;110286;-67
2021/07/02 10:26:22;;;;;;;24.45;13.05;;;;;;;22.40;54.29;101726.13;4986765;28;110022;-67
2021/07/02 10:28:50;;;;;;;24.08;13.80;;;;;;;22.31;54.58;101730.41;4987676;28;124243;-67
2021/07/02 10:31:18;;;;;;;23.63;13.88;;;;;;;22.26;55.09;101726.38;4980485;28;123859;-66
2021/07/02 10:33:48;;;;;;;24.13;14.60;;;;;;;22.22;55.34;101731.13;4972643;28;109046;-67
2021/07/02 10:36:17;;;;;;;24.58;14.85;;;;;;;22.16;55.42;101727.06;4983750;28;108932;-67
2021/07/02 10:38:46;;;;;;;26.13;15.43;;;;;;;22.14;55.63;101733.59;4977433;28;124531;-67
2021/07/02 10:41:26;;;;;;;28.40;15.77;;;;;;;22.11;55.85;101733.81;4986014;28;123994;-67
2021/07/02 10:44:14;;;;;;;28.13;15.38;;;;;;;22.09;55.91;101731.22;4987460;28;108219;-67
2021/07/02 10:47:01;;;;;;;30.80;15.90;;;;;;;22.05;55.97;101728.91;4982108;28;109363;-67
2021/07/02 10:49:39;;;;;;;32.22;16.08;;;;;;;22.03;55.99;101741.69;4992309;28;124033;-67
2021/07/02 10:52:25;;;;;;;31.35;16.23;;;;;;;21.96;56.00;101739.47;4982598;28;123968;-67
2021/07/02 10:54:57;;;;;;;30.75;16.70;;;;;;;21.91;56.25;101744.34;4987121;28;109541;-67
2021/07/02 10:57:26;;;;;;;34.75;17.35;;;;;;;21.84;56.30;101732.34;4993455;28;96930;-67
2021/07/02 10:59:53;;;;;;;30.95;17.55;;;;;;;21.83;56.83;101736.03;4989409;28;124401;-67
2021/07/02 11:02:24;;;;;;;34.17;18.45;;;;;;;21.85;57.12;101733.19;4993151;28;122729;-67
2021/07/02 11:04:52;;;;;;;32.78;17.10;;;;;;;21.85;56.96;101731.38;4992812;28;109107;-67
2021/07/02 11:07:25;;;;;;;33.78;19.02;;;;;;;21.83;57.14;101741.41;4988519;28;109753;-67
2021/07/02 11:09:53;;;;;;;37.05;18.05;;;;;;;21.81;57.03;101743.34;4992381;28;123063;-67
2021/07/02 11:12:24;;;;;;;38.30;18.38;;;;;;;21.81;57.26;101737.97;4973385;28;123126;-67
2021/07/02 11:14:54;;;;;;;36.60;18.38;;;;;;;21.83;57.33;101741.41;4990125;28;109491;-67
2021/07/02 11:17:30;;;;;;;39.85;18.80;;;;;;;21.85;57.33;101739.47;4988660;28;110390;-67
2021/07/02 11:20:13;;;;;;;34.22;17.85;;;;;;;21.91;57.62;101733.56;4990353;28;124822;-67
2021/07/02 11:22:42;;;;;;;38.17;18.95;;;;;;;21.99;57.59;101735.66;4989168;28;122867;-67